createdAt,value
2023-05-11T00:01:12.955Z,10.60
2023-05-11T00:03:39.549Z,11.50
2023-05-11T00:08:32.951Z,12.13
2023-05-11T00:11:01.027Z,10.52
2023-05-11T00:13:28.258Z,10.45
2023-05-11T00:15:54.955Z,10.98
2023-05-11T00:18:21.688Z,12.98
2023-05-11T00:23:17.420Z,11.43
2023-05-11T00:25:43.950Z,11.43
2023-05-11T00:28:10.717Z,9.02
2023-05-11T00:33:03.677Z,18.02
2023-05-11T00:35:30.721Z,15.70
2023-05-11T00:37:57.157Z,12.02
2023-05-11T00:40:23.698Z,11.60
2023-05-11T00:42:50.217Z,13.18
2023-05-11T00:45:16.758Z,9.30
2023-05-11T00:47:43.266Z,9.85
2023-05-11T00:50:09.996Z,9.65
2023-05-11T00:52:40.496Z,11.52
2023-05-11T00:55:07.481Z,11.27
2023-05-11T00:57:36.157Z,13.43
2023-05-11T01:00:03.739Z,9.10
2023-05-11T01:02:31.055Z,11.75
2023-05-11T01:04:57.667Z,10.85
2023-05-11T01:07:32.468Z,10.80
2023-05-11T01:10:13.353Z,12.85
2023-05-11T01:13:01.828Z,12.93
2023-05-11T01:15:40.109Z,9.77
2023-05-11T01:18:25.236Z,11.50
2023-05-11T01:20:55.395Z,20.45
2023-05-11T01:23:36.976Z,11.45
2023-05-11T01:26:37.136Z,10.68
2023-05-11T01:29:41.160Z,12.55
2023-05-11T01:32:16.849Z,12.60
2023-05-11T01:34:45.439Z,12.27
2023-05-11T01:51:49.631Z,17.27
2023-05-11T01:54:18.947Z,16.63
2023-05-11T01:56:46.168Z,15.30
2023-05-11T01:59:14.294Z,16.05
2023-05-11T02:01:41.321Z,16.55
2023-05-11T02:04:09.511Z,14.63
2023-05-11T02:06:38.944Z,13.18
2023-05-11T02:09:07.850Z,16.30
2023-05-11T02:11:35.877Z,19.00
2023-05-11T02:14:04.940Z,15.00
2023-05-11T02:16:33.274Z,18.55
2023-05-11T02:19:00.147Z,18.27
2023-05-11T02:21:28.140Z,14.05
2023-05-11T02:23:55.476Z,13.70
2023-05-11T02:26:22.508Z,14.45
2023-05-11T02:28:49.110Z,16.85
2023-05-11T02:31:19.870Z,13.80
2023-05-11T02:33:52.148Z,15.95
2023-05-11T02:36:22.335Z,16.90
2023-05-11T02:38:52.250Z,15.43
2023-05-11T02:41:27.834Z,11.75
2023-05-11T02:43:56.858Z,16.60
2023-05-11T02:46:28.315Z,15.40
2023-05-11T02:49:00.928Z,21.50
2023-05-11T02:51:35.075Z,15.80
2023-05-11T02:54:03.749Z,15.15
2023-05-11T02:56:30.475Z,14.05
2023-05-11T02:58:57.205Z,17.63
2023-05-11T03:03:50.857Z,17.43
2023-05-11T03:06:17.403Z,20.38
2023-05-11T03:08:43.939Z,16.33
2023-05-11T03:11:12.571Z,18.25
2023-05-11T03:13:39.233Z,14.48
2023-05-11T03:16:06.529Z,17.08
2023-05-11T03:18:34.063Z,18.38
2023-05-11T03:21:01.508Z,19.48
2023-05-11T03:23:28.649Z,17.23
2023-05-11T03:25:56.147Z,12.55
2023-05-11T03:28:24.315Z,14.18
2023-05-11T03:30:53.108Z,16.70
2023-05-11T03:33:21.102Z,13.50
2023-05-11T03:35:51.112Z,18.08
2023-05-11T03:38:22.215Z,18.30
2023-05-11T03:40:51.332Z,14.95
2023-05-11T03:43:19.264Z,15.32
2023-05-11T03:45:47.427Z,13.55
2023-05-11T03:48:16.484Z,15.27
2023-05-11T03:50:43.793Z,16.98
2023-05-11T03:53:11.194Z,14.68
2023-05-11T03:55:37.965Z,13.68
2023-05-11T04:00:41.929Z,15.55
2023-05-11T04:03:12.485Z,14.15
2023-05-11T04:05:39.135Z,13.07
2023-05-11T04:08:06.098Z,20.70
2023-05-11T04:10:32.778Z,14.68
2023-05-11T04:12:59.326Z,12.27
2023-05-11T04:15:25.882Z,12.88
2023-05-11T04:17:52.314Z,13.25
2023-05-11T04:20:19.106Z,11.48
2023-05-11T04:22:45.838Z,13.32
2023-05-11T04:25:13.668Z,13.75
2023-05-11T04:27:40.312Z,11.85
2023-05-11T04:30:08.043Z,14.23
2023-05-11T04:32:34.547Z,12.00
2023-05-11T04:35:00.990Z,10.80
2023-05-11T04:37:30.719Z,10.85
2023-05-11T04:39:57.813Z,11.10
2023-05-11T04:42:24.331Z,12.70
2023-05-11T04:44:53.487Z,11.80
2023-05-11T04:47:19.951Z,10.70
2023-05-11T04:49:46.382Z,11.48
2023-05-11T04:52:12.830Z,14.38
2023-05-11T04:54:39.324Z,13.98
2023-05-11T04:57:05.793Z,10.93
2023-05-11T04:59:33.636Z,11.18
2023-05-11T05:02:00.244Z,11.45
2023-05-11T05:04:26.789Z,10.05
2023-05-11T05:06:54.480Z,11.73
2023-05-11T05:09:20.945Z,14.63
2023-05-11T05:11:48.035Z,17.02
2023-05-11T05:14:14.796Z,10.77
2023-05-11T05:19:09.840Z,16.48
2023-05-11T05:21:36.397Z,12.50
2023-05-11T05:24:06.888Z,12.10
2023-05-11T05:26:33.358Z,12.43
2023-05-11T05:28:59.788Z,12.82
2023-05-11T05:31:26.764Z,21.10
2023-05-11T05:33:53.373Z,15.48
2023-05-11T05:36:19.826Z,10.27
2023-05-11T05:38:46.398Z,16.40
2023-05-11T05:41:12.961Z,15.63
2023-05-11T05:43:39.420Z,10.93
2023-05-11T05:46:06.323Z,12.00
2023-05-11T05:48:32.928Z,10.45
2023-05-11T05:51:00.333Z,14.88
2023-05-11T05:53:26.894Z,13.55
2023-05-11T05:55:53.387Z,13.48
2023-05-11T05:58:20.140Z,14.30
2023-05-11T06:03:13.272Z,10.25
2023-05-11T06:05:40.087Z,14.18
2023-05-11T06:10:37.929Z,14.35
2023-05-11T06:13:04.726Z,13.05
2023-05-11T06:15:31.473Z,10.30
2023-05-11T06:17:58.013Z,11.35
2023-05-11T06:20:24.623Z,7.57
2023-05-11T06:22:51.121Z,10.82
2023-05-11T06:25:17.909Z,8.30
2023-05-11T06:30:11.399Z,11.40
2023-05-11T06:32:37.912Z,9.52
2023-05-11T06:35:04.673Z,6.38
2023-05-11T06:39:59.172Z,9.65
2023-05-11T06:42:25.805Z,12.63
2023-05-11T06:44:52.354Z,8.95
2023-05-11T06:47:18.997Z,8.52
2023-05-11T06:49:45.416Z,6.85
2023-05-11T06:52:11.952Z,6.03
2023-05-11T06:54:38.404Z,13.35
2023-05-11T06:57:06.226Z,8.50
2023-05-11T06:59:33.337Z,8.65
2023-05-11T07:01:59.967Z,6.43
2023-05-11T07:04:27.709Z,9.40
2023-05-11T07:06:55.111Z,7.93
2023-05-11T07:09:21.653Z,4.68
2023-05-11T07:11:52.233Z,12.43
2023-05-11T07:14:19.090Z,9.07
2023-05-11T07:16:46.574Z,9.48
2023-05-11T07:19:19.228Z,10.88
2023-05-11T07:21:45.759Z,14.80
2023-05-11T07:24:12.497Z,5.32
2023-05-11T07:29:05.461Z,18.98
2023-05-11T07:31:32.469Z,7.63
2023-05-11T07:33:59.192Z,6.15
2023-05-11T07:36:25.665Z,7.22
2023-05-11T07:38:52.119Z,10.45
2023-05-11T07:41:19.266Z,10.77
2023-05-11T07:43:45.843Z,8.93
2023-05-11T07:46:12.484Z,5.18
2023-05-11T07:51:07.314Z,13.43
2023-05-11T07:57:04.137Z,6.10
2023-05-11T07:59:31.293Z,9.07
2023-05-11T08:02:05.912Z,5.43
2023-05-11T08:04:32.857Z,7.00
2023-05-11T08:06:59.598Z,6.25
2023-05-11T08:09:26.167Z,8.50
2023-05-11T08:14:25.352Z,4.80
2023-05-11T08:16:55.262Z,12.80
2023-05-11T08:19:21.826Z,4.68
2023-05-11T08:21:48.428Z,5.90
2023-05-11T08:24:15.181Z,17.25
2023-05-11T08:29:08.323Z,8.25
2023-05-11T08:31:35.079Z,5.30
2023-05-11T08:34:02.102Z,16.52
2023-05-11T08:36:28.694Z,8.05
2023-05-11T08:38:59.037Z,16.27
2023-05-11T08:41:26.013Z,18.95
2023-05-11T08:46:27.157Z,4.50
2023-05-11T08:48:54.650Z,6.47
2023-05-11T08:51:22.806Z,8.82
2023-05-11T08:53:51.649Z,3.88
2023-05-11T08:56:47.875Z,8.77
2023-05-11T08:59:15.336Z,8.77
2023-05-11T09:01:42.456Z,4.88
2023-05-11T09:04:09.192Z,11.23
2023-05-11T09:06:53.440Z,14.75
2023-05-11T09:09:20.344Z,5.15
2023-05-11T09:12:01.760Z,4.95
2023-05-11T09:14:29.834Z,5.10
2023-05-11T09:16:58.933Z,7.05
2023-05-11T09:19:42.705Z,8.18
2023-05-11T09:22:09.247Z,7.03
2023-05-11T09:29:02.891Z,6.07
2023-05-11T09:31:52.460Z,12.45
2023-05-11T09:37:17.514Z,4.65
2023-05-11T09:42:21.814Z,13.75
2023-05-11T09:44:57.038Z,2.63
2023-05-11T09:47:23.683Z,5.07
2023-05-11T09:52:50.656Z,3.28
2023-05-11T09:55:17.812Z,6.65
2023-05-11T09:57:54.484Z,2.95
2023-05-11T10:00:21.310Z,10.40
2023-05-11T10:03:06.186Z,7.85
2023-05-11T10:05:34.963Z,3.45
2023-05-11T10:08:06.058Z,9.48
2023-05-11T10:10:33.798Z,5.75
2023-05-11T10:13:03.485Z,4.85
2023-05-11T10:15:33.373Z,11.30
2023-05-11T10:18:01.277Z,6.97
2023-05-11T10:20:28.023Z,6.43
2023-05-11T10:25:23.257Z,4.18
2023-05-11T10:27:51.258Z,5.70
2023-05-11T10:30:18.395Z,6.80
2023-05-11T10:32:49.368Z,4.07
2023-05-11T10:35:16.396Z,5.25
2023-05-11T10:37:43.502Z,3.35
2023-05-11T10:40:11.425Z,2.80
2023-05-11T10:43:02.871Z,11.93
2023-05-11T10:45:41.974Z,8.63
2023-05-11T10:48:32.614Z,10.25
2023-05-11T10:51:33.380Z,9.43
2023-05-11T10:54:19.325Z,11.45
2023-05-11T10:57:13.850Z,6.55
2023-05-11T10:59:58.699Z,7.60
2023-05-11T11:02:31.388Z,2.55
2023-05-11T11:04:58.890Z,3.22
2023-05-11T11:07:25.546Z,3.13
2023-05-11T11:12:29.644Z,2.50
2023-05-11T11:15:02.148Z,4.85
2023-05-11T11:17:31.797Z,9.60
2023-05-11T11:20:01.388Z,4.88
2023-05-11T11:22:39.014Z,7.28
2023-05-11T11:25:06.968Z,2.83
2023-05-11T11:27:45.979Z,6.07
2023-05-11T11:30:19.986Z,5.35
2023-05-11T11:32:48.268Z,19.20
2023-05-11T11:35:39.867Z,11.00
2023-05-11T11:38:14.904Z,2.78
2023-05-11T11:40:52.816Z,8.10
2023-05-11T11:43:24.752Z,11.40
2023-05-11T11:46:04.106Z,5.10
2023-05-11T11:48:37.919Z,6.82
2023-05-11T11:51:13.049Z,4.13
2023-05-11T11:53:43.695Z,9.40
2023-05-11T11:56:16.406Z,6.53
2023-05-11T11:58:46.266Z,2.83
2023-05-11T12:01:15.185Z,13.07
2023-05-11T12:03:47.565Z,7.05
2023-05-11T12:06:14.883Z,8.70
2023-05-11T12:08:43.051Z,5.28
2023-05-11T12:11:09.668Z,5.28
2023-05-11T12:16:17.073Z,17.83
2023-05-11T12:18:52.836Z,9.60
2023-05-11T12:21:37.596Z,8.40
2023-05-11T12:24:05.797Z,4.25
2023-05-11T12:26:34.240Z,4.75
2023-05-11T12:29:12.765Z,10.07
2023-05-11T12:31:41.163Z,7.32
2023-05-11T12:34:17.710Z,2.35
2023-05-11T12:36:45.246Z,3.17
2023-05-11T12:39:24.616Z,6.45
2023-05-11T12:41:52.884Z,10.27
2023-05-11T12:44:21.577Z,3.70
2023-05-11T12:46:48.775Z,3.25
2023-05-11T12:51:59.301Z,5.18
2023-05-11T12:54:27.744Z,9.15
2023-05-11T12:56:54.827Z,2.83
2023-05-11T12:59:27.845Z,8.02
2023-05-11T13:01:54.501Z,5.18
2023-05-11T13:06:58.431Z,9.73
2023-05-11T13:12:10.746Z,10.82
2023-05-11T13:14:37.360Z,5.65
2023-05-11T13:19:32.270Z,6.18
2023-05-11T13:21:58.970Z,3.22
2023-05-11T13:24:26.564Z,2.55
2023-05-11T13:26:53.912Z,2.75
2023-05-11T13:29:20.750Z,2.45
2023-05-11T13:31:51.906Z,20.10
2023-05-11T13:34:19.882Z,15.43
2023-05-11T13:36:47.026Z,5.40
2023-05-11T13:39:16.727Z,8.30
2023-05-11T13:41:43.370Z,12.32
2023-05-11T13:46:36.430Z,2.40
2023-05-11T13:51:31.034Z,3.10
2023-05-11T13:53:59.355Z,5.38
2023-05-11T13:56:26.092Z,7.60
2023-05-11T13:58:52.553Z,2.97
2023-05-11T14:01:22.207Z,2.78
2023-05-11T14:03:52.792Z,4.60
2023-05-11T14:06:21.533Z,7.53
2023-05-11T14:08:48.089Z,5.53
2023-05-11T14:11:14.549Z,6.60
2023-05-11T14:13:43.177Z,5.25
2023-05-11T14:16:10.141Z,9.13
2023-05-11T14:18:36.681Z,4.40
2023-05-11T14:23:29.665Z,7.57
2023-05-11T14:25:56.124Z,6.93
2023-05-11T14:28:22.532Z,3.67
2023-05-11T14:30:49.174Z,5.35
2023-05-11T14:35:42.105Z,5.30
2023-05-11T14:38:08.773Z,10.85
2023-05-11T14:43:01.817Z,2.65
2023-05-11T14:45:28.474Z,4.55
2023-05-11T14:50:21.409Z,5.35
2023-05-11T14:52:48.220Z,3.60
2023-05-11T14:55:14.825Z,9.40
2023-05-11T15:00:08.596Z,5.78
2023-05-11T15:02:35.240Z,15.95
2023-05-11T15:07:29.321Z,5.60
2023-05-11T15:09:56.340Z,2.88
2023-05-11T15:12:23.489Z,4.72
2023-05-11T15:14:50.654Z,3.88
2023-05-11T15:17:17.378Z,3.97
2023-05-11T15:22:19.680Z,6.03
2023-05-11T15:27:12.549Z,4.97
2023-05-11T15:29:39.117Z,6.22
2023-05-11T15:32:06.044Z,4.53
2023-05-11T15:34:32.576Z,2.90
2023-05-11T15:37:00.255Z,5.40
2023-05-11T15:39:26.803Z,6.22
2023-05-11T15:41:53.335Z,3.80
2023-05-11T15:44:19.897Z,3.95
2023-05-11T15:46:46.350Z,7.57
2023-05-11T15:49:12.887Z,3.85
2023-05-11T15:51:39.335Z,5.82
2023-05-11T15:54:05.878Z,5.15
2023-05-11T15:56:32.404Z,4.10
2023-05-11T15:58:59.240Z,3.58
2023-05-11T16:01:25.893Z,3.30
2023-05-11T16:06:19.539Z,3.47
2023-05-11T16:08:46.036Z,3.08
2023-05-11T16:11:12.457Z,5.40
2023-05-11T16:13:38.943Z,3.17
2023-05-11T16:16:06.544Z,3.38
2023-05-11T16:18:33.136Z,3.08
2023-05-11T16:23:26.851Z,3.95
2023-05-11T16:25:53.574Z,7.07
2023-05-11T16:28:20.314Z,6.75
2023-05-11T16:33:14.150Z,2.47
2023-05-11T16:38:07.251Z,3.53
2023-05-11T16:43:01.467Z,8.43
2023-05-11T16:45:27.986Z,3.50
2023-05-11T16:47:54.653Z,10.02
2023-05-11T16:52:50.004Z,5.38
2023-05-11T16:55:16.867Z,8.25
2023-05-11T16:57:44.700Z,5.97
2023-05-11T17:00:12.832Z,6.20
2023-05-11T17:02:42.323Z,10.60
2023-05-11T17:05:11.472Z,8.38
2023-05-11T17:07:38.052Z,3.50
2023-05-11T17:10:05.113Z,7.20
2023-05-11T17:12:32.085Z,4.03
2023-05-11T17:15:00.227Z,5.43
2023-05-11T17:17:27.533Z,4.10
2023-05-11T17:19:54.461Z,5.50
2023-05-11T17:22:20.963Z,7.43
2023-05-11T17:24:47.577Z,5.88
2023-05-11T17:29:43.538Z,4.72
2023-05-11T17:32:10.233Z,3.60
2023-05-11T17:37:03.770Z,4.18
2023-05-11T17:42:00.119Z,6.43
2023-05-11T17:44:26.848Z,3.47
2023-05-11T17:49:20.073Z,3.90
2023-05-11T17:51:47.254Z,4.20
2023-05-11T17:54:13.830Z,4.30
2023-05-11T17:56:42.956Z,3.63
2023-05-11T17:59:09.745Z,6.50
2023-05-11T18:04:04.641Z,8.82
2023-05-11T18:06:31.416Z,4.10
2023-05-11T18:08:59.768Z,6.30
2023-05-11T18:11:27.180Z,7.47
2023-05-11T18:13:53.994Z,6.43
2023-05-11T18:18:47.937Z,7.10
2023-05-11T18:21:14.430Z,4.32
2023-05-11T18:23:40.906Z,7.13
2023-05-11T18:26:07.621Z,4.38
2023-05-11T18:31:00.977Z,3.97
2023-05-11T18:33:27.536Z,5.32
2023-05-11T18:35:57.088Z,3.72
2023-05-11T18:38:23.533Z,3.60
2023-05-11T18:40:51.167Z,4.93
2023-05-11T18:43:17.936Z,5.15
2023-05-11T18:48:17.529Z,5.88
2023-05-11T18:50:48.675Z,7.13
2023-05-11T18:53:24.142Z,12.88
2023-05-11T18:59:42.954Z,4.10
2023-05-11T19:02:12.774Z,3.72
2023-05-11T19:04:39.533Z,6.90
2023-05-11T19:09:35.459Z,4.95
2023-05-11T19:12:04.012Z,5.68
2023-05-11T19:14:30.573Z,3.67
2023-05-11T19:16:57.351Z,4.40
2023-05-11T19:19:24.436Z,3.22
2023-05-11T19:21:51.157Z,3.85
2023-05-11T19:24:17.816Z,6.85
2023-05-11T19:29:25.580Z,7.38
2023-05-11T19:34:18.946Z,5.32
2023-05-11T19:36:45.499Z,3.97
2023-05-11T19:39:18.189Z,4.07
2023-05-11T19:41:45.872Z,4.35
2023-05-11T19:44:12.413Z,6.25
2023-05-11T19:46:45.788Z,3.05
2023-05-11T19:49:17.591Z,5.63
2023-05-11T19:51:44.174Z,3.45
2023-05-11T19:54:11.694Z,6.28
2023-05-11T19:56:38.529Z,4.13
